createdAt,value
2018-07-22T00:02:25.227Z,23.00
2018-07-22T00:04:53.711Z,22.90
2018-07-22T00:07:22.161Z,22.70
2018-07-22T00:09:50.644Z,22.60
2018-07-22T00:14:47.332Z,22.50
2018-07-22T00:17:15.781Z,22.60
2018-07-22T00:19:44.327Z,22.60
2018-07-22T00:22:12.899Z,22.50
2018-07-22T00:24:41.386Z,22.60
2018-07-22T00:27:10.058Z,22.70
2018-07-22T00:29:39.032Z,22.80
2018-07-22T00:32:07.514Z,22.90
2018-07-22T00:34:35.959Z,22.90
2018-07-22T00:37:04.583Z,23.00
2018-07-22T00:39:33.051Z,23.00
2018-07-22T00:42:01.540Z,23.10
2018-07-22T00:44:29.948Z,23.10
2018-07-22T00:46:58.361Z,23.20
2018-07-22T00:49:26.777Z,23.20
2018-07-22T00:51:55.262Z,23.20
2018-07-22T00:54:23.702Z,23.20
2018-07-22T00:56:52.144Z,23.20
2018-07-22T00:59:20.663Z,23.20
2018-07-22T01:01:49.102Z,23.30
2018-07-22T01:04:17.581Z,23.30
2018-07-22T01:06:46.037Z,23.30
2018-07-22T01:09:14.439Z,23.30
2018-07-22T01:11:42.842Z,23.30
2018-07-22T01:14:11.296Z,23.30
2018-07-22T01:16:39.861Z,23.20
2018-07-22T01:19:08.244Z,23.20
2018-07-22T01:21:36.784Z,23.20
2018-07-22T01:24:05.307Z,23.20
2018-07-22T01:26:33.743Z,23.20
2018-07-22T01:29:02.195Z,23.20
2018-07-22T01:31:30.913Z,23.20
2018-07-22T01:33:59.313Z,23.20
2018-07-22T01:36:27.713Z,23.20
2018-07-22T01:38:56.226Z,23.00
2018-07-22T01:41:24.669Z,22.90
2018-07-22T01:43:53.045Z,22.90
2018-07-22T01:46:21.729Z,23.00
2018-07-22T01:48:50.175Z,22.90
2018-07-22T01:53:46.763Z,22.90
2018-07-22T01:56:15.183Z,22.90
2018-07-22T01:58:43.621Z,22.90
2018-07-22T02:01:12.061Z,23.00
2018-07-22T02:03:40.698Z,23.00
2018-07-22T02:06:09.125Z,23.00
2018-07-22T02:08:37.546Z,23.00
2018-07-22T02:11:06.072Z,22.80
2018-07-22T02:13:34.506Z,22.80
2018-07-22T02:16:03.035Z,22.80
2018-07-22T02:18:31.515Z,22.90
2018-07-22T02:21:00.066Z,22.90
2018-07-22T02:23:28.482Z,22.90
2018-07-22T02:25:56.907Z,22.90
2018-07-22T02:28:25.337Z,22.80
2018-07-22T02:30:53.785Z,22.80
2018-07-22T02:33:22.186Z,22.80
2018-07-22T02:35:50.626Z,22.90
2018-07-22T02:38:19.057Z,22.90
2018-07-22T02:43:15.663Z,22.80
2018-07-22T02:45:44.260Z,22.80
2018-07-22T02:48:12.675Z,22.80
2018-07-22T02:50:41.163Z,22.70
2018-07-22T02:53:09.601Z,22.70
2018-07-22T02:55:38.053Z,22.70
2018-07-22T02:58:06.471Z,22.70
2018-07-22T03:00:34.909Z,22.70
2018-07-22T03:03:03.355Z,22.60
2018-07-22T03:05:31.781Z,22.60
2018-07-22T03:08:00.222Z,22.70
2018-07-22T03:10:28.743Z,22.70
2018-07-22T03:12:57.179Z,22.70
2018-07-22T03:15:25.620Z,22.70
2018-07-22T03:17:54.065Z,22.60
2018-07-22T03:20:22.499Z,22.60
2018-07-22T03:22:50.941Z,22.50
2018-07-22T03:25:19.443Z,22.50
2018-07-22T03:27:47.925Z,22.50
2018-07-22T03:30:16.442Z,22.50
2018-07-22T03:32:44.842Z,22.50
2018-07-22T03:35:13.299Z,22.50
2018-07-22T03:37:41.749Z,22.50
2018-07-22T03:40:10.335Z,22.40
2018-07-22T03:42:38.741Z,22.40
2018-07-22T03:45:07.164Z,22.50
2018-07-22T03:47:35.572Z,22.40
2018-07-22T03:50:04.181Z,22.40
2018-07-22T03:52:32.708Z,22.40
2018-07-22T03:55:01.101Z,22.40
2018-07-22T03:57:29.540Z,22.30
2018-07-22T03:59:57.979Z,22.30
2018-07-22T04:02:26.455Z,22.40
2018-07-22T04:04:54.840Z,22.40
2018-07-22T04:07:23.259Z,22.40
2018-07-22T04:09:51.848Z,22.40
2018-07-22T04:12:20.304Z,22.30
2018-07-22T04:14:48.726Z,22.30
2018-07-22T04:17:17.207Z,22.30
2018-07-22T04:19:45.687Z,22.30
2018-07-22T04:22:14.210Z,22.30
2018-07-22T04:24:42.648Z,22.30
2018-07-22T04:27:11.105Z,22.40
2018-07-22T04:29:39.539Z,22.50
2018-07-22T04:32:07.981Z,22.50
2018-07-22T04:34:36.394Z,22.40
2018-07-22T04:37:04.847Z,22.40
2018-07-22T04:39:33.266Z,22.40
2018-07-22T04:42:01.702Z,22.40
2018-07-22T04:44:30.133Z,22.40
2018-07-22T04:46:58.546Z,22.40
2018-07-22T04:49:26.992Z,22.30
2018-07-22T04:51:55.668Z,22.40
2018-07-22T04:54:24.060Z,22.30
2018-07-22T04:56:52.588Z,22.30
2018-07-22T04:59:21.172Z,22.20
2018-07-22T05:01:49.591Z,22.00
2018-07-22T05:04:18.018Z,21.80
2018-07-22T05:06:46.553Z,21.80
2018-07-22T05:09:14.981Z,21.70
2018-07-22T05:11:43.414Z,21.70
2018-07-22T05:14:11.839Z,21.60
2018-07-22T05:16:40.380Z,21.50
2018-07-22T05:19:08.860Z,21.50
2018-07-22T05:21:37.349Z,21.50
2018-07-22T05:24:06.074Z,21.50
2018-07-22T05:26:34.607Z,21.50
2018-07-22T05:29:03.089Z,21.50
2018-07-22T05:31:31.614Z,21.40
2018-07-22T05:33:59.996Z,21.40
2018-07-22T05:36:28.431Z,21.50
2018-07-22T05:38:56.856Z,21.40
2018-07-22T05:41:25.286Z,21.50
2018-07-22T05:43:53.766Z,21.50
2018-07-22T05:46:22.184Z,21.50
2018-07-22T05:48:50.781Z,21.60
2018-07-22T05:51:19.317Z,21.60
2018-07-22T05:53:47.762Z,21.50
2018-07-22T05:56:16.372Z,21.60
2018-07-22T05:58:44.794Z,21.70
2018-07-22T06:01:13.246Z,21.70
2018-07-22T06:03:41.849Z,21.80
2018-07-22T06:06:10.395Z,21.80
2018-07-22T06:11:07.252Z,22.00
2018-07-22T06:13:35.710Z,22.00
2018-07-22T06:16:05.502Z,22.00
2018-07-22T06:18:34.106Z,22.00
2018-07-22T06:21:02.667Z,22.20
2018-07-22T06:23:31.130Z,22.20
2018-07-22T06:25:59.587Z,22.40
2018-07-22T06:28:28.073Z,22.70
2018-07-22T06:30:56.501Z,23.00
2018-07-22T06:33:24.967Z,23.10
2018-07-22T06:35:53.489Z,23.40
2018-07-22T06:38:21.919Z,24.00
2018-07-22T06:40:50.424Z,24.40
2018-07-22T06:43:18.847Z,24.60
2018-07-22T06:45:47.329Z,24.90
2018-07-22T06:48:15.743Z,25.20
2018-07-22T06:50:44.287Z,25.60
2018-07-22T06:53:12.804Z,26.10
2018-07-22T06:55:41.257Z,26.10
2018-07-22T06:58:09.871Z,26.00
2018-07-22T07:00:38.299Z,25.80
2018-07-22T07:03:06.905Z,25.50
2018-07-22T07:05:35.386Z,25.40
2018-07-22T07:08:04.473Z,25.10
2018-07-22T07:10:33.093Z,24.90
2018-07-22T07:13:01.536Z,24.80
2018-07-22T07:15:29.953Z,24.90
2018-07-22T07:17:58.507Z,24.80
2018-07-22T07:20:27.489Z,24.70
2018-07-22T07:22:56.003Z,25.00
2018-07-22T07:25:24.463Z,25.20
2018-07-22T07:27:52.903Z,25.20
2018-07-22T07:30:21.928Z,25.40
2018-07-22T07:32:50.359Z,25.60
2018-07-22T07:35:18.735Z,25.60
2018-07-22T07:37:47.157Z,25.40
2018-07-22T07:40:15.559Z,25.90
2018-07-22T07:42:44.001Z,26.20
2018-07-22T07:45:12.391Z,26.30
2018-07-22T07:47:40.778Z,26.30
2018-07-22T07:50:09.211Z,26.40
2018-07-22T07:52:37.649Z,26.50
2018-07-22T07:55:06.248Z,26.40
2018-07-22T07:57:34.965Z,26.50
2018-07-22T08:02:31.718Z,26.30
2018-07-22T08:05:00.244Z,26.30
2018-07-22T08:07:28.640Z,26.70
2018-07-22T08:09:57.079Z,27.10
2018-07-22T08:12:25.525Z,27.50
2018-07-22T08:14:53.968Z,27.90
2018-07-22T08:17:22.399Z,28.30
2018-07-22T08:19:50.842Z,28.70
2018-07-22T08:22:19.307Z,29.00
2018-07-22T08:24:47.704Z,29.40
2018-07-22T08:27:16.102Z,29.60
2018-07-22T08:29:44.708Z,29.70
2018-07-22T08:32:13.692Z,30.00
2018-07-22T08:34:42.108Z,30.10
2018-07-22T08:37:10.563Z,30.30
2018-07-22T08:39:38.976Z,30.70
2018-07-22T08:42:07.400Z,30.50
2018-07-22T08:44:35.896Z,30.50
2018-07-22T08:47:04.372Z,30.60
2018-07-22T08:49:32.786Z,30.40
2018-07-22T08:52:07.588Z,30.80
2018-07-22T08:54:36.051Z,31.00
2018-07-22T08:57:04.692Z,31.10
2018-07-22T08:59:33.101Z,31.00
2018-07-22T09:02:01.529Z,31.20
2018-07-22T09:04:29.995Z,31.00
2018-07-22T09:06:58.395Z,31.00
2018-07-22T09:09:26.840Z,30.90
2018-07-22T09:11:55.251Z,30.30
2018-07-22T09:14:23.669Z,30.00
2018-07-22T09:16:52.857Z,29.80
2018-07-22T09:19:21.279Z,29.80
2018-07-22T09:21:49.699Z,29.80
2018-07-22T09:24:18.091Z,29.60
2018-07-22T09:26:46.503Z,29.70
2018-07-22T09:29:14.981Z,29.60
2018-07-22T09:31:43.417Z,29.80
2018-07-22T09:34:11.843Z,29.70
2018-07-22T09:36:40.401Z,29.50
2018-07-22T09:39:11.153Z,29.30
2018-07-22T09:41:39.703Z,29.10
2018-07-22T09:44:08.334Z,28.70
2018-07-22T09:46:36.767Z,28.70
2018-07-22T09:49:06.814Z,28.90
2018-07-22T09:51:35.262Z,29.10
2018-07-22T09:54:04.056Z,29.30
2018-07-22T09:56:32.444Z,29.40
2018-07-22T09:59:00.875Z,29.40
2018-07-22T10:01:29.316Z,29.40
2018-07-22T10:03:57.758Z,29.40
2018-07-22T10:06:26.153Z,29.30
2018-07-22T10:08:54.564Z,29.20
2018-07-22T10:11:22.960Z,28.90
2018-07-22T10:13:51.418Z,28.30
2018-07-22T10:16:19.812Z,28.00
2018-07-22T10:18:48.371Z,28.10
2018-07-22T10:21:16.800Z,28.30
2018-07-22T10:23:45.304Z,28.60
2018-07-22T10:26:13.801Z,28.70
2018-07-22T10:28:42.251Z,28.80
2018-07-22T10:31:10.762Z,28.30
2018-07-22T10:33:39.200Z,27.60
2018-07-22T10:36:07.627Z,27.70
2018-07-22T10:38:36.212Z,28.00
2018-07-22T10:41:06.534Z,28.40
2018-07-22T10:43:35.016Z,28.80
2018-07-22T10:46:03.709Z,29.10
2018-07-22T10:48:32.147Z,29.20
2018-07-22T10:51:00.656Z,29.00
2018-07-22T10:53:29.150Z,28.80
2018-07-22T10:56:02.191Z,28.80
2018-07-22T10:58:30.597Z,28.80
2018-07-22T11:00:59.041Z,28.80
2018-07-22T11:03:27.455Z,28.90
2018-07-22T11:05:55.845Z,29.10
2018-07-22T11:08:24.243Z,29.10
2018-07-22T11:10:52.676Z,28.70
2018-07-22T11:13:21.070Z,28.40
2018-07-22T11:15:49.634Z,28.60
2018-07-22T11:18:18.077Z,28.80
2018-07-22T11:20:46.486Z,28.90
2018-07-22T11:23:15.123Z,28.70
2018-07-22T11:25:43.592Z,28.60
2018-07-22T11:30:40.837Z,28.60
2018-07-22T11:33:09.783Z,28.90
2018-07-22T11:35:38.207Z,28.90
2018-07-22T11:38:06.796Z,28.90
2018-07-22T11:40:35.225Z,28.90
2018-07-22T11:43:03.628Z,29.00
2018-07-22T11:45:32.074Z,28.90
2018-07-22T11:48:00.496Z,28.70
2018-07-22T11:50:28.891Z,28.50
2018-07-22T11:52:57.316Z,28.60
2018-07-22T11:55:25.746Z,28.50
2018-07-22T11:57:54.127Z,28.60
2018-07-22T12:00:22.633Z,28.80
2018-07-22T12:02:51.039Z,28.80
2018-07-22T12:05:19.908Z,28.80
2018-07-22T12:07:48.401Z,28.90
2018-07-22T12:10:16.719Z,29.10
2018-07-22T12:12:45.113Z,29.10
2018-07-22T12:15:13.542Z,29.00
2018-07-22T12:17:41.948Z,28.60
2018-07-22T12:20:10.368Z,28.00
2018-07-22T12:22:38.773Z,27.70
2018-07-22T12:25:07.206Z,27.80
2018-07-22T12:27:36.676Z,27.90
2018-07-22T12:30:06.016Z,28.00
2018-07-22T12:32:34.708Z,28.00
2018-07-22T12:35:03.187Z,27.90
2018-07-22T12:37:31.672Z,27.90
2018-07-22T12:40:00.090Z,27.90
2018-07-22T12:42:29.026Z,28.10
2018-07-22T12:44:57.499Z,28.00
2018-07-22T12:47:25.884Z,28.10
2018-07-22T12:49:54.384Z,28.40
2018-07-22T12:52:23.581Z,28.70
2018-07-22T12:54:52.137Z,28.90
2018-07-22T12:57:20.583Z,28.70
2018-07-22T12:59:49.179Z,28.50
2018-07-22T13:02:17.777Z,28.50
2018-07-22T13:04:46.189Z,28.40
2018-07-22T13:07:14.683Z,28.40
2018-07-22T13:09:43.823Z,28.50
2018-07-22T13:12:12.303Z,28.60
2018-07-22T13:14:40.728Z,28.60
2018-07-22T13:17:09.173Z,28.40
2018-07-22T13:19:37.575Z,28.30
2018-07-22T13:22:06.215Z,28.50
2018-07-22T13:24:34.610Z,28.90
2018-07-22T13:27:03.044Z,29.10
2018-07-22T13:29:32.391Z,29.20
2018-07-22T13:32:00.948Z,29.10
2018-07-22T13:34:29.353Z,28.80
2018-07-22T13:36:57.782Z,28.80
2018-07-22T13:39:26.201Z,28.80
2018-07-22T13:41:54.607Z,28.90
2018-07-22T13:44:23.894Z,29.00
2018-07-22T13:46:52.316Z,29.10
2018-07-22T13:49:20.936Z,29.40
2018-07-22T13:51:49.559Z,29.40
2018-07-22T13:54:17.951Z,29.60
2018-07-22T13:56:46.395Z,29.90
2018-07-22T13:59:15.751Z,29.90
2018-07-22T14:01:44.239Z,30.10
2018-07-22T14:04:12.912Z,30.00
2018-07-22T14:06:41.351Z,30.00
2018-07-22T14:09:11.220Z,30.00
2018-07-22T14:11:39.717Z,30.00
2018-07-22T14:14:08.723Z,29.90
2018-07-22T14:16:37.449Z,29.70
2018-07-22T14:19:05.906Z,29.50
2018-07-22T14:21:34.384Z,29.50
2018-07-22T14:24:02.847Z,29.50
2018-07-22T14:26:31.348Z,29.50
2018-07-22T14:28:59.805Z,29.40
2018-07-22T14:31:28.243Z,29.40
2018-07-22T14:33:56.643Z,29.50
2018-07-22T14:36:25.131Z,29.20
2018-07-22T14:38:53.542Z,29.10
2018-07-22T14:43:51.111Z,28.90
2018-07-22T14:46:19.549Z,28.90
2018-07-22T14:48:47.951Z,28.90
2018-07-22T14:51:16.351Z,28.90
2018-07-22T14:53:44.804Z,29.00
2018-07-22T14:56:13.246Z,29.00
2018-07-22T14:58:42.819Z,29.20
2018-07-22T15:01:13.191Z,29.20
2018-07-22T15:03:42.421Z,29.20
2018-07-22T15:06:11.183Z,29.30
2018-07-22T15:08:39.737Z,29.30
2018-07-22T15:11:08.153Z,29.40
2018-07-22T15:13:36.877Z,29.40
2018-07-22T15:16:05.463Z,29.50
2018-07-22T15:18:34.205Z,29.50
2018-07-22T15:21:02.635Z,29.60
2018-07-22T15:23:31.473Z,29.70
2018-07-22T15:26:00.058Z,29.70
2018-07-22T15:28:28.517Z,29.80
2018-07-22T15:30:57.265Z,29.80
2018-07-22T15:33:25.691Z,29.80
2018-07-22T15:35:54.105Z,29.70
2018-07-22T15:38:22.599Z,29.40
2018-07-22T15:40:50.995Z,29.30
2018-07-22T15:43:20.415Z,29.20
2018-07-22T15:45:49.003Z,29.10
2018-07-22T15:48:17.396Z,28.90
2018-07-22T15:50:45.816Z,28.80
2018-07-22T15:53:14.283Z,28.70
2018-07-22T15:55:42.828Z,28.60
2018-07-22T15:58:11.119Z,28.30
2018-07-22T16:00:39.617Z,28.10
2018-07-22T16:03:08.199Z,28.10
2018-07-22T16:05:36.747Z,28.10
2018-07-22T16:08:05.420Z,28.10
2018-07-22T16:10:34.690Z,28.20
2018-07-22T16:13:03.156Z,28.10
2018-07-22T16:15:31.959Z,28.10
2018-07-22T16:18:00.496Z,28.00
2018-07-22T16:20:29.212Z,28.00
2018-07-22T16:22:57.576Z,28.00
2018-07-22T16:25:26.058Z,28.20
2018-07-22T16:27:54.515Z,28.50
2018-07-22T16:30:23.049Z,28.70
2018-07-22T16:32:51.494Z,28.50
2018-07-22T16:35:19.865Z,28.50
2018-07-22T16:37:48.225Z,28.30
2018-07-22T16:40:16.772Z,28.10
2018-07-22T16:42:45.185Z,28.20
2018-07-22T16:45:13.640Z,28.20
2018-07-22T16:47:42.040Z,28.20
2018-07-22T16:50:10.471Z,28.10
2018-07-22T16:52:38.879Z,28.00
2018-07-22T16:55:07.331Z,27.90
2018-07-22T16:57:35.746Z,27.80
2018-07-22T17:00:04.319Z,27.70
2018-07-22T17:02:32.832Z,27.60
2018-07-22T17:05:01.209Z,27.60
2018-07-22T17:07:29.717Z,27.70
2018-07-22T17:09:58.121Z,27.50
2018-07-22T17:12:26.546Z,27.50
2018-07-22T17:14:54.946Z,27.50
2018-07-22T17:17:23.331Z,27.40
2018-07-22T17:22:19.965Z,27.30
2018-07-22T17:24:48.418Z,27.20
2018-07-22T17:27:16.816Z,27.10
2018-07-22T17:29:45.361Z,26.90
2018-07-22T17:32:13.828Z,26.90
2018-07-22T17:34:42.353Z,26.80
2018-07-22T17:37:10.844Z,26.80
2018-07-22T17:39:39.244Z,26.70
2018-07-22T17:42:07.815Z,26.70
2018-07-22T17:44:36.284Z,26.60
2018-07-22T17:47:04.646Z,26.60
2018-07-22T17:49:33.083Z,26.60
2018-07-22T17:52:01.782Z,26.50
2018-07-22T17:54:30.196Z,26.50
2018-07-22T17:56:58.667Z,26.50
2018-07-22T17:59:27.141Z,26.50
2018-07-22T18:01:55.540Z,26.50
2018-07-22T18:04:23.960Z,26.60
2018-07-22T18:06:52.388Z,26.50
2018-07-22T18:09:20.842Z,26.50
2018-07-22T18:11:49.260Z,26.50
2018-07-22T18:14:17.719Z,26.50
2018-07-22T18:16:46.138Z,26.50
2018-07-22T18:19:14.536Z,26.50
2018-07-22T18:21:42.957Z,26.40
2018-07-22T18:24:11.384Z,26.40
2018-07-22T18:26:39.864Z,26.30
2018-07-22T18:29:08.390Z,26.30
2018-07-22T18:31:37.915Z,26.30
2018-07-22T18:34:06.413Z,26.30
2018-07-22T18:36:34.924Z,26.30
2018-07-22T18:39:03.506Z,26.20
2018-07-22T18:41:32.316Z,26.20
2018-07-22T18:44:00.799Z,26.10
2018-07-22T18:46:29.192Z,26.10
2018-07-22T18:48:57.911Z,26.10
2018-07-22T18:51:29.004Z,26.00
2018-07-22T18:53:58.515Z,26.00
2018-07-22T18:56:27.121Z,26.00
2018-07-22T18:58:55.535Z,26.00
2018-07-22T19:01:23.952Z,26.00
2018-07-22T19:03:53.564Z,25.90
2018-07-22T19:06:22.042Z,25.90
2018-07-22T19:08:50.742Z,25.90
2018-07-22T19:11:19.187Z,25.80
2018-07-22T19:13:47.579Z,25.80
2018-07-22T19:16:16.011Z,25.80
2018-07-22T19:18:44.639Z,25.70
2018-07-22T19:21:13.324Z,25.80
2018-07-22T19:23:42.118Z,25.70
2018-07-22T19:26:10.736Z,25.70
2018-07-22T19:28:39.139Z,25.70
2018-07-22T19:31:07.819Z,25.70
2018-07-22T19:33:36.340Z,25.60
2018-07-22T19:36:04.995Z,25.60
2018-07-22T19:38:33.500Z,25.60
2018-07-22T19:41:02.585Z,25.60
2018-07-22T19:43:31.044Z,25.50
2018-07-22T19:45:59.545Z,25.50
2018-07-22T19:48:28.099Z,25.50
2018-07-22T19:50:56.691Z,25.50
2018-07-22T19:53:25.090Z,25.50
2018-07-22T19:55:53.511Z,25.40
2018-07-22T19:58:22.001Z,25.40
2018-07-22T20:00:50.451Z,25.40
2018-07-22T20:03:18.923Z,25.40
2018-07-22T20:05:47.335Z,25.40
2018-07-22T20:08:15.755Z,25.30
2018-07-22T20:13:12.547Z,25.30
2018-07-22T20:15:41.183Z,25.20
2018-07-22T20:18:09.814Z,25.20
2018-07-22T20:20:38.897Z,25.20
2018-07-22T20:23:07.407Z,25.20
2018-07-22T20:25:35.819Z,25.20
2018-07-22T20:28:08.958Z,25.20
2018-07-22T20:30:37.705Z,25.20
2018-07-22T20:33:06.317Z,25.20
2018-07-22T20:35:34.903Z,25.10
2018-07-22T20:38:03.375Z,25.10
2018-07-22T20:40:31.807Z,25.00
2018-07-22T20:43:00.206Z,24.90
2018-07-22T20:45:28.745Z,24.80
2018-07-22T20:47:57.228Z,24.70
2018-07-22T20:50:25.660Z,24.70
2018-07-22T20:52:54.059Z,24.70
2018-07-22T20:55:22.477Z,24.70
2018-07-22T20:57:50.903Z,24.70
2018-07-22T21:00:19.313Z,24.70
2018-07-22T21:02:48.297Z,24.60
2018-07-22T21:05:16.715Z,24.60
2018-07-22T21:07:45.150Z,24.60
2018-07-22T21:10:13.652Z,24.60
2018-07-22T21:12:59.101Z,24.60
2018-07-22T21:15:27.527Z,24.50
2018-07-22T21:17:55.959Z,24.50
2018-07-22T21:20:24.394Z,24.50
2018-07-22T21:23:08.165Z,24.50
2018-07-22T21:25:36.687Z,24.60
2018-07-22T21:28:05.210Z,24.60
2018-07-22T21:30:33.752Z,24.70
2018-07-22T21:33:02.255Z,24.70
2018-07-22T21:35:30.823Z,24.70
2018-07-22T21:37:59.508Z,24.70
2018-07-22T21:40:28.146Z,24.80
2018-07-22T21:42:56.668Z,24.80
2018-07-22T21:45:26.581Z,24.80
2018-07-22T21:47:55.693Z,24.80
2018-07-22T21:50:24.080Z,24.70
2018-07-22T21:52:52.475Z,24.70
2018-07-22T21:55:20.931Z,24.70
2018-07-22T21:57:49.354Z,24.70
2018-07-22T22:00:30.542Z,24.70
2018-07-22T22:02:59.657Z,24.60
2018-07-22T22:05:28.172Z,24.70
2018-07-22T22:07:56.827Z,24.70
2018-07-22T22:10:25.736Z,24.60
2018-07-22T22:12:54.519Z,24.40
2018-07-22T22:15:30.294Z,24.30
2018-07-22T22:17:59.861Z,24.20
2018-07-22T22:20:28.846Z,24.20
2018-07-22T22:22:57.444Z,24.10
2018-07-22T22:25:25.925Z,24.00
2018-07-22T22:27:54.513Z,23.90
2018-07-22T22:30:22.920Z,23.80
2018-07-22T22:32:51.380Z,23.70
2018-07-22T22:35:19.756Z,23.60
2018-07-22T22:37:48.247Z,23.50
2018-07-22T22:40:16.901Z,23.50
2018-07-22T22:42:46.291Z,23.30
2018-07-22T22:45:15.322Z,23.30
2018-07-22T22:47:43.773Z,23.20
2018-07-22T22:50:12.199Z,23.20
2018-07-22T22:52:40.760Z,23.20
2018-07-22T22:55:09.395Z,23.10
2018-07-22T22:57:37.792Z,23.00
2018-07-22T23:00:06.674Z,22.90
2018-07-22T23:02:37.328Z,22.70
2018-07-22T23:05:07.280Z,22.70
2018-07-22T23:07:35.687Z,22.60
2018-07-22T23:10:04.748Z,22.70
2018-07-22T23:12:33.336Z,22.70
2018-07-22T23:15:01.733Z,22.80
2018-07-22T23:17:30.195Z,23.00
2018-07-22T23:19:58.647Z,23.10
2018-07-22T23:22:27.069Z,23.30
2018-07-22T23:24:55.482Z,23.30
2018-07-22T23:27:23.944Z,23.20
2018-07-22T23:29:52.383Z,23.20
2018-07-22T23:32:20.772Z,23.20
2018-07-22T23:34:49.203Z,23.30
2018-07-22T23:37:17.581Z,23.40
2018-07-22T23:39:46.735Z,23.40
2018-07-22T23:42:15.123Z,23.40
2018-07-22T23:44:43.572Z,23.50
2018-07-22T23:47:13.199Z,23.60
2018-07-22T23:49:41.608Z,23.60
2018-07-22T23:52:10.089Z,23.70
2018-07-22T23:54:38.468Z,23.70
2018-07-22T23:57:07.029Z,23.80
2018-07-22T23:59:35.524Z,23.70
